• Join FlightAware (Why Join?)
  • Login
  • US Flag 
06:01PM EDT


 

Airport Tracker/Info


-or-


 

Live Flight TrackerFlight Track Log ✈ CSN3864 ✈ 06-May-2013 ✈ ZPPP / KMG - ZGNN / NNG

Flight Track Log - Related Links

Times and Time Zones

All times are in EDT time to prevent confusion due to time zone crossing. See the CSN3864 flight status page for this flight to view local times or setup timezone preferences in your user account.

Time Position Orientation Groundspeed Altitude Reporting Facility
EDT Latitude Longitude Course Direction KTS MPH feet Rate Location/Type
10:14AM 25.0351 103.0777 116° Southeast  Level Estimated
10:15AM 24.9681 103.2260 116° Southeast  Level Estimated
10:16AM 24.9010 103.3742 117° Southeast  Level Estimated
10:17AM 24.8337 103.5222 117° Southeast  Level Estimated
10:18AM 24.7662 103.6700 117° Southeast  Level Estimated
10:19AM 24.6987 103.8177 117° Southeast  Level Estimated
10:20AM 24.6309 103.9652 117° Southeast  Level Estimated
10:21AM 24.5631 104.1126 117° Southeast  Level Estimated
10:22AM 24.4951 104.2598 117° Southeast  Level Estimated
10:23AM 24.4269 104.4068 117° Southeast  Level Estimated
10:24AM 24.3586 104.5537 117° Southeast  Level Estimated
10:25AM 24.2902 104.7004 117° Southeast  Level Estimated
10:26AM 24.2216 104.8470 117° Southeast  Level Estimated
10:27AM 24.1529 104.9934 117° Southeast  Level Estimated
10:28AM 24.0840 105.1397 117° Southeast  Level Estimated
10:29AM 24.0150 105.2858 117° Southeast  Level Estimated
10:30AM 23.9459 105.4317 117° Southeast  Level Estimated
10:31AM 23.8766 105.5775 117° Southeast  Level Estimated
10:32AM 23.8072 105.7231 117° Southeast  Level Estimated
10:33AM 23.7377 105.8686 118° Southeast  Level Estimated
10:34AM 23.6680 106.0139 118° Southeast  Level Estimated
10:35AM 23.5982 106.1591 118° Southeast  Level Estimated
10:36AM 23.5282 106.3041 118° Southeast  Level Estimated
10:37AM 23.4581 106.4489 118° Southeast  Level Estimated
10:38AM 23.3879 106.5936 118° Southeast  Level Estimated
10:39AM 23.3176 106.7382 118° Southeast  Level Estimated
10:40AM 23.2471 106.8826 118° Southeast  Level Estimated
10:41AM 23.1765 107.0268 118° Southeast  Level Estimated
10:42AM 23.1057 107.1709 118° Southeast  Level Estimated
10:43AM 23.0348 107.3148 118° Southeast  Level Estimated
10:44AM 22.9638 107.4586 118° Southeast  Level Estimated
10:45AM 22.8927 107.6022 118° Southeast  Level Estimated
10:46AM 22.8214 107.7457 118° Southeast  Level Estimated
10:47AM 22.7500 107.8891 118° Southeast  Level Estimated
10:48AM 22.6785 108.0322 118° Southeast  Level Estimated
10:49AM 22.6083 108.1724 118° Southeast  Level Estimated
10:50AM 22.6083 108.1724 148° Southeast  Level Estimated
10:51AM 22.6083 108.1724 148° Southeast  Level Estimated
10:52AM 22.6083 108.1724 148° Southeast  Level Estimated
10:53AM 22.6083 108.1724 148° Southeast  Level Estimated
10:54AM 22.6083 108.1724 148° Southeast  Level Estimated
10:55AM 22.6083 108.1724 148° Southeast  Level Estimated
10:56AM 22.6083 108.1724 148° Southeast  Level Estimated
10:57AM 22.6083 108.1724 148° Southeast  Level Estimated
10:58AM 22.6083 108.1724 148° Southeast  Level Estimated
10:59AM 22.6083 108.1724 148° Southeast  Level Estimated
11:00AM 22.6083 108.1724 148° Southeast  Level Estimated
11:01AM 22.6083 108.1724 148° Southeast  Level Estimated
11:02AM 22.6083 108.1724 148° Southeast  Level Estimated